sensor_id;sensor_type;location;lat;lon;timestamp;P1;durP1;ratioP1;P2;durP2;ratioP2
29412;SDS011;16389;50.126;8.450;2024-02-26T00:00:38;1.48;;;1.10;;
29412;SDS011;16389;50.126;8.450;2024-02-26T00:03:04;1.35;;;0.90;;
29412;SDS011;16389;50.126;8.450;2024-02-26T00:05:30;1.58;;;1.05;;
29412;SDS011;16389;50.126;8.450;2024-02-26T00:07:56;1.13;;;1.02;;
29412;SDS011;16389;50.126;8.450;2024-02-26T00:10:22;2.50;;;1.60;;
29412;SDS011;16389;50.126;8.450;2024-02-26T00:12:47;1.30;;;1.10;;
29412;SDS011;16389;50.126;8.450;2024-02-26T00:15:13;1.00;;;0.90;;
29412;SDS011;16389;50.126;8.450;2024-02-26T00:17:39;1.10;;;1.00;;
29412;SDS011;16389;50.126;8.450;2024-02-26T00:20:05;0.82;;;0.80;;
29412;SDS011;16389;50.126;8.450;2024-02-26T00:22:33;1.23;;;0.90;;
29412;SDS011;16389;50.126;8.450;2024-02-26T00:24:59;1.80;;;0.80;;
29412;SDS011;16389;50.126;8.450;2024-02-26T00:27:25;1.02;;;0.93;;
29412;SDS011;16389;50.126;8.450;2024-02-26T00:29:51;1.33;;;1.23;;
29412;SDS011;16389;50.126;8.450;2024-02-26T00:32:16;1.17;;;1.08;;
29412;SDS011;16389;50.126;8.450;2024-02-26T00:34:42;2.13;;;0.93;;
29412;SDS011;16389;50.126;8.450;2024-02-26T00:37:07;1.83;;;1.08;;
29412;SDS011;16389;50.126;8.450;2024-02-26T00:39:33;1.95;;;1.67;;
29412;SDS011;16389;50.126;8.450;2024-02-26T00:41:59;1.42;;;1.10;;
29412;SDS011;16389;50.126;8.450;2024-02-26T00:44:24;2.40;;;1.10;;
29412;SDS011;16389;50.126;8.450;2024-02-26T00:46:50;2.85;;;1.35;;
29412;SDS011;16389;50.126;8.450;2024-02-26T00:49:16;1.50;;;1.10;;
29412;SDS011;16389;50.126;8.450;2024-02-26T00:51:41;1.17;;;1.08;;
29412;SDS011;16389;50.126;8.450;2024-02-26T00:54:07;1.70;;;0.90;;
29412;SDS011;16389;50.126;8.450;2024-02-26T00:56:32;1.52;;;1.00;;
29412;SDS011;16389;50.126;8.450;2024-02-26T00:58:58;1.73;;;1.05;;
29412;SDS011;16389;50.126;8.450;2024-02-26T01:01:23;1.30;;;1.02;;
29412;SDS011;16389;50.126;8.450;2024-02-26T01:03:49;0.88;;;0.88;;
29412;SDS011;16389;50.126;8.450;2024-02-26T01:06:15;1.15;;;1.05;;
29412;SDS011;16389;50.126;8.450;2024-02-26T01:08:40;1.50;;;1.10;;
29412;SDS011;16389;50.126;8.450;2024-02-26T01:11:06;1.38;;;1.20;;
29412;SDS011;16389;50.126;8.450;2024-02-26T01:13:32;2.58;;;0.90;;
29412;SDS011;16389;50.126;8.450;2024-02-26T01:15:58;1.20;;;1.10;;
29412;SDS011;16389;50.126;8.450;2024-02-26T01:18:23;1.63;;;0.98;;
29412;SDS011;16389;50.126;8.450;2024-02-26T01:20:49;1.40;;;1.17;;
29412;SDS011;16389;50.126;8.450;2024-02-26T01:23:15;1.23;;;1.00;;
29412;SDS011;16389;50.126;8.450;2024-02-26T01:25:40;1.33;;;1.00;;
29412;SDS011;16389;50.126;8.450;2024-02-26T01:28:08;1.95;;;1.02;;
29412;SDS011;16389;50.126;8.450;2024-02-26T01:30:33;2.03;;;1.40;;
29412;SDS011;16389;50.126;8.450;2024-02-26T01:32:59;2.03;;;1.35;;
29412;SDS011;16389;50.126;8.450;2024-02-26T01:35:24;2.00;;;1.10;;
29412;SDS011;16389;50.126;8.450;2024-02-26T01:37:50;1.13;;;1.02;;
29412;SDS011;16389;50.126;8.450;2024-02-26T01:40:15;1.30;;;1.20;;
29412;SDS011;16389;50.126;8.450;2024-02-26T01:42:44;1.27;;;1.15;;
29412;SDS011;16389;50.126;8.450;2024-02-26T01:45:12;1.33;;;1.10;;
29412;SDS011;16389;50.126;8.450;2024-02-26T01:47:50;2.25;;;1.95;;
29412;SDS011;16389;50.126;8.450;2024-02-26T01:50:17;1.40;;;1.00;;
29412;SDS011;16389;50.126;8.450;2024-02-26T01:52:47;1.40;;;1.25;;
29412;SDS011;16389;50.126;8.450;2024-02-26T01:55:14;1.85;;;1.30;;
29412;SDS011;16389;50.126;8.450;2024-02-26T01:57:40;2.78;;;1.30;;
29412;SDS011;16389;50.126;8.450;2024-02-26T02:00:09;1.45;;;1.10;;
29412;SDS011;16389;50.126;8.450;2024-02-26T02:02:35;4.18;;;1.40;;
29412;SDS011;16389;50.126;8.450;2024-02-26T02:05:01;1.40;;;1.10;;
29412;SDS011;16389;50.126;8.450;2024-02-26T02:07:27;2.05;;;1.10;;
29412;SDS011;16389;50.126;8.450;2024-02-26T02:09:55;3.17;;;1.35;;
29412;SDS011;16389;50.126;8.450;2024-02-26T02:12:21;1.02;;;0.93;;
29412;SDS011;16389;50.126;8.450;2024-02-26T02:14:47;1.33;;;1.13;;
29412;SDS011;16389;50.126;8.450;2024-02-26T02:17:12;1.30;;;1.20;;
29412;SDS011;16389;50.126;8.450;2024-02-26T02:19:38;1.52;;;1.20;;
29412;SDS011;16389;50.126;8.450;2024-02-26T02:22:03;1.65;;;1.23;;
29412;SDS011;16389;50.126;8.450;2024-02-26T02:24:29;1.75;;;1.27;;
29412;SDS011;16389;50.126;8.450;2024-02-26T02:26:55;1.98;;;1.40;;
29412;SDS011;16389;50.126;8.450;2024-02-26T02:29:21;1.50;;;1.40;;
29412;SDS011;16389;50.126;8.450;2024-02-26T02:31:46;2.25;;;1.83;;
29412;SDS011;16389;50.126;8.450;2024-02-26T02:34:12;1.35;;;1.25;;
29412;SDS011;16389;50.126;8.450;2024-02-26T02:36:49;1.20;;;1.10;;
29412;SDS011;16389;50.126;8.450;2024-02-26T02:39:17;1.58;;;1.35;;
29412;SDS011;16389;50.126;8.450;2024-02-26T02:41:42;1.67;;;1.23;;
29412;SDS011;16389;50.126;8.450;2024-02-26T02:44:08;1.40;;;1.30;;
29412;SDS011;16389;50.126;8.450;2024-02-26T02:46:34;2.38;;;1.40;;
29412;SDS011;16389;50.126;8.450;2024-02-26T02:49:00;2.22;;;1.30;;
29412;SDS011;16389;50.126;8.450;2024-02-26T02:51:26;1.60;;;1.50;;
29412;SDS011;16389;50.126;8.450;2024-02-26T02:53:51;1.75;;;1.40;;
29412;SDS011;16389;50.126;8.450;2024-02-26T02:56:17;1.63;;;1.52;;
29412;SDS011;16389;50.126;8.450;2024-02-26T02:58:42;2.88;;;1.40;;
29412;SDS011;16389;50.126;8.450;2024-02-26T03:01:08;2.47;;;1.40;;
29412;SDS011;16389;50.126;8.450;2024-02-26T03:03:34;1.80;;;1.52;;
29412;SDS011;16389;50.126;8.450;2024-02-26T03:06:03;1.83;;;1.40;;
29412;SDS011;16389;50.126;8.450;2024-02-26T03:08:29;1.98;;;1.48;;
29412;SDS011;16389;50.126;8.450;2024-02-26T03:10:55;1.65;;;1.45;;
29412;SDS011;16389;50.126;8.450;2024-02-26T03:13:20;1.42;;;1.10;;
29412;SDS011;16389;50.126;8.450;2024-02-26T03:15:46;2.72;;;1.35;;
29412;SDS011;16389;50.126;8.450;2024-02-26T03:18:12;1.10;;;1.00;;
29412;SDS011;16389;50.126;8.450;2024-02-26T03:20:37;1.30;;;1.20;;
29412;SDS011;16389;50.126;8.450;2024-02-26T03:23:03;1.65;;;1.38;;
29412;SDS011;16389;50.126;8.450;2024-02-26T03:25:29;1.30;;;1.20;;
29412;SDS011;16389;50.126;8.450;2024-02-26T03:27:54;1.58;;;1.15;;
29412;SDS011;16389;50.126;8.450;2024-02-26T03:30:20;1.38;;;1.20;;
29412;SDS011;16389;50.126;8.450;2024-02-26T03:32:45;1.75;;;1.20;;
29412;SDS011;16389;50.126;8.450;2024-02-26T03:35:12;1.58;;;1.38;;
29412;SDS011;16389;50.126;8.450;2024-02-26T03:37:38;1.70;;;1.38;;
29412;SDS011;16389;50.126;8.450;2024-02-26T03:40:04;1.52;;;1.20;;
29412;SDS011;16389;50.126;8.450;2024-02-26T03:42:30;1.58;;;1.40;;
29412;SDS011;16389;50.126;8.450;2024-02-26T03:44:55;2.28;;;1.10;;
29412;SDS011;16389;50.126;8.450;2024-02-26T03:47:21;1.25;;;1.15;;
29412;SDS011;16389;50.126;8.450;2024-02-26T03:49:46;1.35;;;1.17;;
29412;SDS011;16389;50.126;8.450;2024-02-26T03:52:12;1.35;;;1.25;;
29412;SDS011;16389;50.126;8.450;2024-02-26T03:54:38;1.27;;;1.17;;
29412;SDS011;16389;50.126;8.450;2024-02-26T03:57:04;1.92;;;1.58;;
29412;SDS011;16389;50.126;8.450;2024-02-26T03:59:29;1.25;;;1.15;;
29412;SDS011;16389;50.126;8.450;2024-02-26T04:01:55;1.73;;;1.40;;
29412;SDS011;16389;50.126;8.450;2024-02-26T04:04:20;1.60;;;1.20;;
29412;SDS011;16389;50.126;8.450;2024-02-26T04:06:46;1.52;;;1.15;;
29412;SDS011;16389;50.126;8.450;2024-02-26T04:09:13;2.22;;;1.33;;
29412;SDS011;16389;50.126;8.450;2024-02-26T04:11:39;1.52;;;1.38;;
29412;SDS011;16389;50.126;8.450;2024-02-26T04:14:05;1.27;;;1.17;;
29412;SDS011;16389;50.126;8.450;2024-02-26T04:16:33;2.25;;;1.45;;
29412;SDS011;16389;50.126;8.450;2024-02-26T04:19:00;2.08;;;1.38;;
29412;SDS011;16389;50.126;8.450;2024-02-26T04:21:26;1.55;;;1.40;;
29412;SDS011;16389;50.126;8.450;2024-02-26T04:23:51;1.40;;;1.30;;
29412;SDS011;16389;50.126;8.450;2024-02-26T04:26:20;2.25;;;1.40;;
29412;SDS011;16389;50.126;8.450;2024-02-26T04:28:46;2.13;;;1.50;;
29412;SDS011;16389;50.126;8.450;2024-02-26T04:31:11;1.77;;;1.60;;
29412;SDS011;16389;50.126;8.450;2024-02-26T04:33:37;1.80;;;1.45;;
29412;SDS011;16389;50.126;8.450;2024-02-26T04:36:03;2.13;;;1.60;;
29412;SDS011;16389;50.126;8.450;2024-02-26T04:38:29;2.15;;;1.50;;
29412;SDS011;16389;50.126;8.450;2024-02-26T04:40:54;2.70;;;1.70;;
29412;SDS011;16389;50.126;8.450;2024-02-26T04:43:20;4.25;;;2.70;;
29412;SDS011;16389;50.126;8.450;2024-02-26T04:45:45;2.30;;;2.05;;
29412;SDS011;16389;50.126;8.450;2024-02-26T04:48:11;1.90;;;1.70;;
29412;SDS011;16389;50.126;8.450;2024-02-26T04:50:36;2.55;;;1.90;;
29412;SDS011;16389;50.126;8.450;2024-02-26T04:53:02;2.15;;;1.95;;
29412;SDS011;16389;50.126;8.450;2024-02-26T04:55:28;3.10;;;2.58;;
29412;SDS011;16389;50.126;8.450;2024-02-26T04:57:53;2.60;;;2.08;;
29412;SDS011;16389;50.126;8.450;2024-02-26T05:00:19;4.47;;;1.98;;
29412;SDS011;16389;50.126;8.450;2024-02-26T05:02:44;2.58;;;2.38;;
29412;SDS011;16389;50.126;8.450;2024-02-26T05:05:11;4.03;;;2.58;;
29412;SDS011;16389;50.126;8.450;2024-02-26T05:07:41;2.72;;;2.28;;
29412;SDS011;16389;50.126;8.450;2024-02-26T05:10:10;2.97;;;2.63;;
29412;SDS011;16389;50.126;8.450;2024-02-26T05:12:36;3.22;;;2.80;;
29412;SDS011;16389;50.126;8.450;2024-02-26T05:15:02;3.17;;;2.08;;
29412;SDS011;16389;50.126;8.450;2024-02-26T05:17:28;2.10;;;1.90;;
29412;SDS011;16389;50.126;8.450;2024-02-26T05:19:53;3.13;;;2.30;;
29412;SDS011;16389;50.126;8.450;2024-02-26T05:22:19;3.28;;;2.40;;
29412;SDS011;16389;50.126;8.450;2024-02-26T05:24:45;3.03;;;2.72;;
29412;SDS011;16389;50.126;8.450;2024-02-26T05:27:10;3.50;;;2.45;;
29412;SDS011;16389;50.126;8.450;2024-02-26T05:29:37;3.45;;;2.38;;
29412;SDS011;16389;50.126;8.450;2024-02-26T05:32:03;3.45;;;2.33;;
29412;SDS011;16389;50.126;8.450;2024-02-26T05:34:30;3.63;;;3.05;;
29412;SDS011;16389;50.126;8.450;2024-02-26T05:36:55;2.47;;;2.28;;
29412;SDS011;16389;50.126;8.450;2024-02-26T05:39:22;4.35;;;2.40;;
29412;SDS011;16389;50.126;8.450;2024-02-26T05:41:47;2.88;;;2.53;;
29412;SDS011;16389;50.126;8.450;2024-02-26T05:44:14;3.67;;;2.90;;
29412;SDS011;16389;50.126;8.450;2024-02-26T05:46:41;3.53;;;3.10;;
29412;SDS011;16389;50.126;8.450;2024-02-26T05:49:07;3.70;;;3.40;;
29412;SDS011;16389;50.126;8.450;2024-02-26T05:51:32;6.25;;;3.30;;
29412;SDS011;16389;50.126;8.450;2024-02-26T05:53:58;4.30;;;3.42;;
29412;SDS011;16389;50.126;8.450;2024-02-26T05:56:24;3.75;;;3.45;;
29412;SDS011;16389;50.126;8.450;2024-02-26T05:58:49;4.00;;;3.58;;
29412;SDS011;16389;50.126;8.450;2024-02-26T06:01:16;4.07;;;3.53;;
29412;SDS011;16389;50.126;8.450;2024-02-26T06:03:42;4.72;;;3.50;;
29412;SDS011;16389;50.126;8.450;2024-02-26T06:06:09;3.20;;;2.90;;
29412;SDS011;16389;50.126;8.450;2024-02-26T06:08:39;5.93;;;3.90;;
29412;SDS011;16389;50.126;8.450;2024-02-26T06:11:05;6.90;;;3.30;;
29412;SDS011;16389;50.126;8.450;2024-02-26T06:13:32;4.10;;;3.17;;
29412;SDS011;16389;50.126;8.450;2024-02-26T06:15:58;5.32;;;3.80;;
29412;SDS011;16389;50.126;8.450;2024-02-26T06:18:23;3.83;;;3.20;;
29412;SDS011;16389;50.126;8.450;2024-02-26T06:20:49;4.10;;;2.83;;
29412;SDS011;16389;50.126;8.450;2024-02-26T06:23:15;8.77;;;4.18;;
29412;SDS011;16389;50.126;8.450;2024-02-26T06:25:41;3.63;;;3.20;;
29412;SDS011;16389;50.126;8.450;2024-02-26T06:28:07;3.28;;;2.97;;
29412;SDS011;16389;50.126;8.450;2024-02-26T06:30:33;3.58;;;3.00;;
29412;SDS011;16389;50.126;8.450;2024-02-26T06:33:01;4.20;;;3.42;;
29412;SDS011;16389;50.126;8.450;2024-02-26T06:35:26;4.18;;;3.78;;
29412;SDS011;16389;50.126;8.450;2024-02-26T06:37:52;4.68;;;3.65;;
29412;SDS011;16389;50.126;8.450;2024-02-26T06:40:18;4.60;;;3.40;;
29412;SDS011;16389;50.126;8.450;2024-02-26T06:42:44;4.03;;;3.63;;
29412;SDS011;16389;50.126;8.450;2024-02-26T06:45:10;3.53;;;3.22;;
29412;SDS011;16389;50.126;8.450;2024-02-26T06:47:35;5.78;;;3.88;;
29412;SDS011;16389;50.126;8.450;2024-02-26T06:50:01;4.28;;;3.88;;
29412;SDS011;16389;50.126;8.450;2024-02-26T06:52:26;3.90;;;3.47;;
29412;SDS011;16389;50.126;8.450;2024-02-26T06:54:52;4.32;;;3.70;;
29412;SDS011;16389;50.126;8.450;2024-02-26T06:57:21;4.03;;;3.63;;
29412;SDS011;16389;50.126;8.450;2024-02-26T06:59:47;5.65;;;3.58;;
29412;SDS011;16389;50.126;8.450;2024-02-26T07:02:13;5.57;;;4.05;;
29412;SDS011;16389;50.126;8.450;2024-02-26T07:04:39;4.82;;;3.85;;
29412;SDS011;16389;50.126;8.450;2024-02-26T07:07:05;3.95;;;3.50;;
29412;SDS011;16389;50.126;8.450;2024-02-26T07:09:32;3.45;;;3.15;;
29412;SDS011;16389;50.126;8.450;2024-02-26T07:11:57;3.75;;;3.20;;
29412;SDS011;16389;50.126;8.450;2024-02-26T07:14:23;4.38;;;3.95;;
29412;SDS011;16389;50.126;8.450;2024-02-26T07:16:49;4.05;;;3.65;;
29412;SDS011;16389;50.126;8.450;2024-02-26T07:19:15;4.38;;;3.55;;
29412;SDS011;16389;50.126;8.450;2024-02-26T07:21:41;4.90;;;3.60;;
29412;SDS011;16389;50.126;8.450;2024-02-26T07:24:06;3.90;;;3.50;;
29412;SDS011;16389;50.126;8.450;2024-02-26T07:26:32;4.25;;;3.63;;
29412;SDS011;16389;50.126;8.450;2024-02-26T07:29:04;4.13;;;3.38;;
29412;SDS011;16389;50.126;8.450;2024-02-26T07:31:30;3.83;;;3.40;;
29412;SDS011;16389;50.126;8.450;2024-02-26T07:33:56;4.55;;;2.97;;
29412;SDS011;16389;50.126;8.450;2024-02-26T07:36:39;3.55;;;3.25;;
29412;SDS011;16389;50.126;8.450;2024-02-26T07:39:05;4.43;;;3.33;;
29412;SDS011;16389;50.126;8.450;2024-02-26T07:41:31;4.03;;;3.30;;
29412;SDS011;16389;50.126;8.450;2024-02-26T07:43:56;4.80;;;3.20;;
29412;SDS011;16389;50.126;8.450;2024-02-26T07:46:22;4.07;;;3.67;;
29412;SDS011;16389;50.126;8.450;2024-02-26T07:48:57;3.90;;;2.83;;
29412;SDS011;16389;50.126;8.450;2024-02-26T07:51:22;5.05;;;3.25;;
29412;SDS011;16389;50.126;8.450;2024-02-26T07:53:48;3.83;;;3.17;;
29412;SDS011;16389;50.126;8.450;2024-02-26T07:56:17;3.95;;;3.10;;
29412;SDS011;16389;50.126;8.450;2024-02-26T07:58:43;3.35;;;3.00;;
29412;SDS011;16389;50.126;8.450;2024-02-26T08:01:09;4.38;;;2.92;;
29412;SDS011;16389;50.126;8.450;2024-02-26T08:03:37;3.70;;;3.30;;
29412;SDS011;16389;50.126;8.450;2024-02-26T08:06:03;3.28;;;2.90;;
29412;SDS011;16389;50.126;8.450;2024-02-26T08:08:29;3.25;;;2.92;;
29412;SDS011;16389;50.126;8.450;2024-02-26T08:10:54;3.58;;;2.83;;
29412;SDS011;16389;50.126;8.450;2024-02-26T08:13:20;4.55;;;4.15;;
29412;SDS011;16389;50.126;8.450;2024-02-26T08:15:45;4.20;;;2.80;;
29412;SDS011;16389;50.126;8.450;2024-02-26T08:18:11;3.85;;;3.45;;
29412;SDS011;16389;50.126;8.450;2024-02-26T08:20:38;4.45;;;2.92;;
29412;SDS011;16389;50.126;8.450;2024-02-26T08:23:03;5.00;;;3.03;;
29412;SDS011;16389;50.126;8.450;2024-02-26T08:25:29;4.03;;;2.92;;
29412;SDS011;16389;50.126;8.450;2024-02-26T08:27:56;3.20;;;2.85;;
29412;SDS011;16389;50.126;8.450;2024-02-26T08:30:22;3.53;;;2.75;;
29412;SDS011;16389;50.126;8.450;2024-02-26T08:32:47;3.90;;;3.03;;
29412;SDS011;16389;50.126;8.450;2024-02-26T08:35:13;3.65;;;3.30;;
29412;SDS011;16389;50.126;8.450;2024-02-26T08:37:39;4.05;;;3.33;;
29412;SDS011;16389;50.126;8.450;2024-02-26T08:40:05;5.35;;;3.25;;
29412;SDS011;16389;50.126;8.450;2024-02-26T08:42:31;4.07;;;3.45;;
29412;SDS011;16389;50.126;8.450;2024-02-26T08:44:57;5.15;;;3.17;;
29412;SDS011;16389;50.126;8.450;2024-02-26T08:47:26;3.90;;;2.75;;
29412;SDS011;16389;50.126;8.450;2024-02-26T08:49:53;3.88;;;3.35;;
29412;SDS011;16389;50.126;8.450;2024-02-26T08:52:18;3.97;;;3.05;;
29412;SDS011;16389;50.126;8.450;2024-02-26T08:54:44;4.03;;;3.17;;
29412;SDS011;16389;50.126;8.450;2024-02-26T08:57:10;3.15;;;2.58;;
29412;SDS011;16389;50.126;8.450;2024-02-26T08:59:35;4.18;;;3.22;;
29412;SDS011;16389;50.126;8.450;2024-02-26T09:02:01;3.97;;;3.63;;
29412;SDS011;16389;50.126;8.450;2024-02-26T09:04:27;5.57;;;3.72;;
29412;SDS011;16389;50.126;8.450;2024-02-26T09:06:53;4.82;;;3.15;;
29412;SDS011;16389;50.126;8.450;2024-02-26T09:09:19;4.30;;;3.67;;
29412;SDS011;16389;50.126;8.450;2024-02-26T09:11:45;6.63;;;3.85;;
29412;SDS011;16389;50.126;8.450;2024-02-26T09:14:11;6.05;;;3.55;;
29412;SDS011;16389;50.126;8.450;2024-02-26T09:16:37;4.65;;;3.58;;
29412;SDS011;16389;50.126;8.450;2024-02-26T09:19:02;5.38;;;4.20;;
29412;SDS011;16389;50.126;8.450;2024-02-26T09:21:28;4.75;;;3.90;;
29412;SDS011;16389;50.126;8.450;2024-02-26T09:23:54;4.90;;;3.95;;
29412;SDS011;16389;50.126;8.450;2024-02-26T09:26:19;5.65;;;3.75;;
29412;SDS011;16389;50.126;8.450;2024-02-26T09:28:45;3.03;;;2.75;;
29412;SDS011;16389;50.126;8.450;2024-02-26T09:31:10;3.88;;;3.42;;
29412;SDS011;16389;50.126;8.450;2024-02-26T09:33:36;4.38;;;3.80;;
29412;SDS011;16389;50.126;8.450;2024-02-26T09:36:03;3.63;;;3.13;;
29412;SDS011;16389;50.126;8.450;2024-02-26T09:38:29;6.57;;;3.40;;
29412;SDS011;16389;50.126;8.450;2024-02-26T09:40:57;6.22;;;3.53;;
29412;SDS011;16389;50.126;8.450;2024-02-26T09:43:24;8.80;;;3.78;;
29412;SDS011;16389;50.126;8.450;2024-02-26T09:45:54;4.25;;;3.33;;
29412;SDS011;16389;50.126;8.450;2024-02-26T09:48:20;6.07;;;3.47;;
29412;SDS011;16389;50.126;8.450;2024-02-26T09:50:48;3.88;;;3.47;;
29412;SDS011;16389;50.126;8.450;2024-02-26T09:53:14;4.50;;;3.78;;
29412;SDS011;16389;50.126;8.450;2024-02-26T09:55:41;3.95;;;3.55;;
29412;SDS011;16389;50.126;8.450;2024-02-26T09:58:08;4.38;;;3.95;;
29412;SDS011;16389;50.126;8.450;2024-02-26T10:00:37;5.05;;;4.20;;
29412;SDS011;16389;50.126;8.450;2024-02-26T10:03:04;4.90;;;3.90;;
29412;SDS011;16389;50.126;8.450;2024-02-26T10:05:34;5.75;;;3.85;;
29412;SDS011;16389;50.126;8.450;2024-02-26T10:08:02;3.67;;;3.22;;
29412;SDS011;16389;50.126;8.450;2024-02-26T10:10:29;6.43;;;3.85;;
29412;SDS011;16389;50.126;8.450;2024-02-26T10:12:57;5.95;;;3.85;;
29412;SDS011;16389;50.126;8.450;2024-02-26T10:15:24;4.18;;;3.80;;
29412;SDS011;16389;50.126;8.450;2024-02-26T10:17:50;4.20;;;3.60;;
29412;SDS011;16389;50.126;8.450;2024-02-26T10:20:16;5.32;;;4.07;;
29412;SDS011;16389;50.126;8.450;2024-02-26T10:22:44;4.32;;;3.38;;
29412;SDS011;16389;50.126;8.450;2024-02-26T10:25:10;4.95;;;3.75;;
29412;SDS011;16389;50.126;8.450;2024-02-26T10:27:35;4.32;;;3.40;;
29412;SDS011;16389;50.126;8.450;2024-02-26T10:30:02;4.50;;;3.33;;
29412;SDS011;16389;50.126;8.450;2024-02-26T10:32:29;4.90;;;4.28;;
29412;SDS011;16389;50.126;8.450;2024-02-26T10:34:56;3.88;;;3.58;;
29412;SDS011;16389;50.126;8.450;2024-02-26T10:37:22;3.63;;;3.20;;
29412;SDS011;16389;50.126;8.450;2024-02-26T10:39:50;5.05;;;4.13;;
29412;SDS011;16389;50.126;8.450;2024-02-26T10:42:15;6.05;;;3.45;;
29412;SDS011;16389;50.126;8.450;2024-02-26T10:44:43;3.72;;;3.40;;
29412;SDS011;16389;50.126;8.450;2024-02-26T10:47:11;4.20;;;3.80;;
29412;SDS011;16389;50.126;8.450;2024-02-26T10:49:37;4.63;;;3.85;;
29412;SDS011;16389;50.126;8.450;2024-02-26T10:52:03;5.68;;;3.20;;
29412;SDS011;16389;50.126;8.450;2024-02-26T10:54:31;4.72;;;3.25;;
29412;SDS011;16389;50.126;8.450;2024-02-26T10:56:58;4.18;;;3.00;;
29412;SDS011;16389;50.126;8.450;2024-02-26T10:59:25;3.45;;;3.15;;
29412;SDS011;16389;50.126;8.450;2024-02-26T11:01:52;3.30;;;3.00;;
29412;SDS011;16389;50.126;8.450;2024-02-26T11:04:20;3.72;;;2.92;;
29412;SDS011;16389;50.126;8.450;2024-02-26T11:06:47;3.80;;;3.40;;
29412;SDS011;16389;50.126;8.450;2024-02-26T11:09:14;4.00;;;3.58;;
29412;SDS011;16389;50.126;8.450;2024-02-26T11:11:41;3.53;;;3.22;;
29412;SDS011;16389;50.126;8.450;2024-02-26T11:14:09;3.55;;;2.97;;
29412;SDS011;16389;50.126;8.450;2024-02-26T11:16:36;4.00;;;3.10;;
29412;SDS011;16389;50.126;8.450;2024-02-26T11:19:03;7.75;;;6.70;;
29412;SDS011;16389;50.126;8.450;2024-02-26T11:21:33;5.88;;;4.57;;
29412;SDS011;16389;50.126;8.450;2024-02-26T11:24:15;4.80;;;3.90;;
29412;SDS011;16389;50.126;8.450;2024-02-26T11:26:50;3.75;;;3.05;;
29412;SDS011;16389;50.126;8.450;2024-02-26T11:29:23;3.50;;;2.97;;
29412;SDS011;16389;50.126;8.450;2024-02-26T11:31:52;3.72;;;3.40;;
29412;SDS011;16389;50.126;8.450;2024-02-26T11:34:18;3.13;;;2.83;;
29412;SDS011;16389;50.126;8.450;2024-02-26T11:36:44;3.33;;;3.03;;
29412;SDS011;16389;50.126;8.450;2024-02-26T11:39:11;4.43;;;3.88;;
29412;SDS011;16389;50.126;8.450;2024-02-26T11:41:40;5.85;;;3.88;;
29412;SDS011;16389;50.126;8.450;2024-02-26T11:44:05;3.58;;;3.28;;
29412;SDS011;16389;50.126;8.450;2024-02-26T11:46:39;4.05;;;3.20;;
29412;SDS011;16389;50.126;8.450;2024-02-26T11:51:53;3.88;;;2.95;;
29412;SDS011;16389;50.126;8.450;2024-02-26T11:59:50;3.90;;;3.45;;
29412;SDS011;16389;50.126;8.450;2024-02-26T12:05:10;4.25;;;3.85;;
29412;SDS011;16389;50.126;8.450;2024-02-26T12:07:44;3.17;;;2.88;;
29412;SDS011;16389;50.126;8.450;2024-02-26T12:10:27;4.32;;;3.92;;
29412;SDS011;16389;50.126;8.450;2024-02-26T12:12:59;4.15;;;3.63;;
29412;SDS011;16389;50.126;8.450;2024-02-26T12:15:33;5.43;;;4.72;;
29412;SDS011;16389;50.126;8.450;2024-02-26T12:18:01;6.30;;;5.05;;
29412;SDS011;16389;50.126;8.450;2024-02-26T12:20:32;5.72;;;4.47;;
29412;SDS011;16389;50.126;8.450;2024-02-26T12:22:58;4.53;;;3.55;;
29412;SDS011;16389;50.126;8.450;2024-02-26T12:25:25;6.10;;;5.50;;
29412;SDS011;16389;50.126;8.450;2024-02-26T12:27:53;5.40;;;4.18;;
29412;SDS011;16389;50.126;8.450;2024-02-26T12:30:19;5.38;;;4.05;;
29412;SDS011;16389;50.126;8.450;2024-02-26T12:32:45;3.55;;;3.25;;
29412;SDS011;16389;50.126;8.450;2024-02-26T12:35:13;4.10;;;3.70;;
29412;SDS011;16389;50.126;8.450;2024-02-26T12:37:40;3.95;;;3.47;;
29412;SDS011;16389;50.126;8.450;2024-02-26T12:40:06;4.28;;;3.88;;
29412;SDS011;16389;50.126;8.450;2024-02-26T12:42:34;3.75;;;3.42;;
29412;SDS011;16389;50.126;8.450;2024-02-26T12:45:04;5.65;;;3.28;;
29412;SDS011;16389;50.126;8.450;2024-02-26T12:47:43;4.18;;;3.67;;
29412;SDS011;16389;50.126;8.450;2024-02-26T12:50:16;5.25;;;4.03;;
29412;SDS011;16389;50.126;8.450;2024-02-26T12:52:46;3.67;;;3.35;;
29412;SDS011;16389;50.126;8.450;2024-02-26T12:57:42;4.18;;;2.88;;
29412;SDS011;16389;50.126;8.450;2024-02-26T13:00:10;3.78;;;3.13;;
29412;SDS011;16389;50.126;8.450;2024-02-26T13:02:39;2.80;;;2.60;;
29412;SDS011;16389;50.126;8.450;2024-02-26T13:05:07;3.55;;;2.90;;
29412;SDS011;16389;50.126;8.450;2024-02-26T13:07:34;3.58;;;3.28;;
29412;SDS011;16389;50.126;8.450;2024-02-26T13:10:05;3.40;;;2.80;;
29412;SDS011;16389;50.126;8.450;2024-02-26T13:12:32;3.22;;;2.90;;
29412;SDS011;16389;50.126;8.450;2024-02-26T13:14:58;4.07;;;3.15;;
29412;SDS011;16389;50.126;8.450;2024-02-26T13:17:25;3.83;;;3.13;;
29412;SDS011;16389;50.126;8.450;2024-02-26T13:19:53;11.10;;;7.43;;
29412;SDS011;16389;50.126;8.450;2024-02-26T13:22:20;3.17;;;2.88;;
29412;SDS011;16389;50.126;8.450;2024-02-26T13:24:53;3.47;;;2.92;;
29412;SDS011;16389;50.126;8.450;2024-02-26T13:27:24;4.70;;;3.90;;
29412;SDS011;16389;50.126;8.450;2024-02-26T13:30:09;3.70;;;3.40;;
29412;SDS011;16389;50.126;8.450;2024-02-26T13:32:36;3.50;;;3.20;;
29412;SDS011;16389;50.126;8.450;2024-02-26T13:35:09;2.90;;;2.58;;
29412;SDS011;16389;50.126;8.450;2024-02-26T13:37:37;2.65;;;2.30;;
29412;SDS011;16389;50.126;8.450;2024-02-26T13:42:36;4.30;;;3.20;;
29412;SDS011;16389;50.126;8.450;2024-02-26T13:45:02;4.32;;;2.50;;
29412;SDS011;16389;50.126;8.450;2024-02-26T13:47:31;2.80;;;2.50;;
29412;SDS011;16389;50.126;8.450;2024-02-26T13:50:00;3.92;;;2.78;;
29412;SDS011;16389;50.126;8.450;2024-02-26T13:52:26;3.28;;;2.70;;
29412;SDS011;16389;50.126;8.450;2024-02-26T13:54:52;6.53;;;2.90;;
29412;SDS011;16389;50.126;8.450;2024-02-26T13:57:18;3.22;;;2.95;;
29412;SDS011;16389;50.126;8.450;2024-02-26T13:59:45;3.92;;;3.50;;
29412;SDS011;16389;50.126;8.450;2024-02-26T14:02:11;3.30;;;2.92;;
29412;SDS011;16389;50.126;8.450;2024-02-26T14:04:37;3.75;;;2.70;;
29412;SDS011;16389;50.126;8.450;2024-02-26T14:07:03;3.13;;;2.83;;
29412;SDS011;16389;50.126;8.450;2024-02-26T14:09:29;3.15;;;2.85;;
29412;SDS011;16389;50.126;8.450;2024-02-26T14:11:55;3.45;;;2.50;;
29412;SDS011;16389;50.126;8.450;2024-02-26T14:14:20;2.78;;;2.58;;
29412;SDS011;16389;50.126;8.450;2024-02-26T14:16:46;3.28;;;2.88;;
29412;SDS011;16389;50.126;8.450;2024-02-26T14:19:11;3.53;;;2.70;;
29412;SDS011;16389;50.126;8.450;2024-02-26T14:21:37;3.65;;;2.97;;
29412;SDS011;16389;50.126;8.450;2024-02-26T14:24:03;3.13;;;2.78;;
29412;SDS011;16389;50.126;8.450;2024-02-26T14:26:29;3.47;;;2.58;;
29412;SDS011;16389;50.126;8.450;2024-02-26T14:28:55;3.35;;;2.83;;
29412;SDS011;16389;50.126;8.450;2024-02-26T14:31:21;3.38;;;2.17;;
29412;SDS011;16389;50.126;8.450;2024-02-26T14:33:47;5.07;;;2.88;;
29412;SDS011;16389;50.126;8.450;2024-02-26T14:36:13;3.13;;;2.70;;
29412;SDS011;16389;50.126;8.450;2024-02-26T14:38:39;5.15;;;4.65;;
29412;SDS011;16389;50.126;8.450;2024-02-26T14:41:04;11.15;;;9.10;;
29412;SDS011;16389;50.126;8.450;2024-02-26T14:43:30;4.00;;;3.55;;
29412;SDS011;16389;50.126;8.450;2024-02-26T14:45:57;4.32;;;3.45;;
29412;SDS011;16389;50.126;8.450;2024-02-26T14:48:24;4.05;;;3.65;;
29412;SDS011;16389;50.126;8.450;2024-02-26T14:50:52;3.65;;;3.17;;
29412;SDS011;16389;50.126;8.450;2024-02-26T14:53:18;3.65;;;3.03;;
29412;SDS011;16389;50.126;8.450;2024-02-26T14:55:43;3.22;;;2.47;;
29412;SDS011;16389;50.126;8.450;2024-02-26T14:58:09;4.20;;;3.20;;
29412;SDS011;16389;50.126;8.450;2024-02-26T15:00:38;3.47;;;2.85;;